Time;durP1;ratioP1;P1;durP2;ratioP2;P2;SDS_P1;SDS_P2;PMS_P1;PMS_P2;Temp;Humidity;BMP_temperature;BMP_pressure;BME280_temperature;BME280_humidity;BME280_pressure;Samples;Min_cycle;Max_cycle;Signal;HPM_P1;HPM_P2
2023/05/24 00:01:41;;;;;;;;;;;;;;;;;;5070228;28;19973;-73
2023/05/24 00:04:09;;;;;;;;;;;;;;;;;;5068480;28;20019;-73
2023/05/24 00:06:36;;;;;;;;;;;;;;;;;;5087050;28;19992;-72
2023/05/24 00:09:04;;;;;;;;;;;7.50;99.90;;;;;;5080796;28;20018;-73
2023/05/24 00:11:31;;;;;;;;;;;7.50;99.90;;;;;;5076662;28;19939;-73
2023/05/24 00:13:58;;;;;;;;;;;;;;;;;;5087863;28;19931;-73
2023/05/24 00:16:25;;;;;;;;;;;7.50;99.90;;;;;;5087842;28;19932;-72
2023/05/24 00:18:53;;;;;;;;;;;;;;;;;;5087493;28;19932;-73
2023/05/24 00:21:20;;;;;;;;;;;;;;;;;;5092227;28;19981;-73
2023/05/24 00:23:47;;;;;;;;;;;;;;;;;;5087881;28;20005;-72
2023/05/24 00:26:14;;;;;;;;;;;;;;;;;;5096353;28;20301;-72
2023/05/24 00:28:46;;;;;;;;;;;;;;;;;;5091528;28;20500;-74
2023/05/24 00:31:13;;;;;;;;;;;;;;;;;;5087749;28;19985;-74
2023/05/24 00:33:40;;;;;;;;;;;;;;;;;;5088316;28;19928;-74
2023/05/24 00:36:08;;;;;;;;;;;;;;;;;;5087445;28;20081;-73
2023/05/24 00:38:36;;;;;;;;;;;7.40;99.90;;;;;;5086813;28;20354;-74
2023/05/24 00:41:03;;;;;;;;;;;;;;;;;;5087581;28;19934;-73
2023/05/24 00:43:30;;;;;;;;;;;7.40;99.90;;;;;;5068643;28;19935;-74
2023/05/24 00:45:57;;;;;;;;;;;;;;;;;;5088068;28;19932;-74
2023/05/24 00:48:27;;;;;;;;;;;;;;;;;;5085917;28;19958;-74
2023/05/24 00:50:54;;;;;;;;;;;;;;;;;;5096168;28;19963;-73
2023/05/24 00:53:21;;;;;;;;;;;7.40;99.90;;;;;;5107830;28;20411;-73
2023/05/24 00:55:48;;;;;;;;;;;;;;;;;;5085449;28;20314;-73
2023/05/24 00:58:16;;;;;;;;;;;7.30;99.90;;;;;;5076631;28;20395;-73
2023/05/24 01:00:44;;;;;;;;;;;7.20;99.90;;;;;;5090405;28;20135;-74
2023/05/24 01:03:11;;;;;;;;;;;;;;;;;;5110631;28;19912;-73
2023/05/24 01:05:38;;;;;;;;;;;;;;;;;;5110961;28;19932;-72
2023/05/24 01:08:06;;;;;;;;;;;;;;;;;;5087631;28;19912;-73
2023/05/24 01:10:37;;;;;;;;;;;7.00;99.90;;;;;;5101264;28;20299;-72
2023/05/24 01:13:07;;;;;;;;;;;6.90;99.90;;;;;;5092501;28;19932;-72
2023/05/24 01:15:34;;;;;;;;;;;;;;;;;;5079261;28;19928;-73
2023/05/24 01:18:01;;;;;;;;;;;;;;;;;;5069277;28;19924;-73
2023/05/24 01:20:32;;;;;;;;;;;6.80;99.90;;;;;;5079872;28;20341;-72
2023/05/24 01:23:14;;;;;;;;;;;6.70;99.90;;;;;;5088712;28;19928;-73
2023/05/24 01:25:49;;;;;;;;;;;6.70;99.90;;;;;;5093398;28;19924;-72
2023/05/24 01:28:16;;;;;;;;;;;;;;;;;;5064526;28;19935;-72
2023/05/24 01:30:46;;;;;;;;;;;6.60;99.90;;;;;;5087368;28;19928;-72
2023/05/24 01:33:12;;;;;;;;;;;6.60;99.90;;;;;;5068120;28;20026;-71
2023/05/24 01:35:41;;;;;;;;;;;;;;;;;;5066593;28;19985;-71
2023/05/24 01:38:08;;;;;;;;;;;6.50;99.90;;;;;;5064398;28;20318;-73
2023/05/24 01:40:36;;;;;;;;;;;6.40;99.90;;;;;;5066531;28;19951;-73
2023/05/24 01:43:03;;;;;;;;;;;;;;;;;;5068998;28;19924;-73
2023/05/24 01:45:30;;;;;;;;;;;;;;;;;;5085815;28;19931;-72
2023/05/24 01:48:02;;;;;;;;;;;6.30;99.90;;;;;;5086922;28;19928;-73
2023/05/24 01:50:31;;;;;;;;;;;6.20;99.90;;;;;;5094900;28;20536;-71
2023/05/24 01:53:02;;;;;;;;;;;6.20;99.90;;;;;;5071798;28;19959;-72
2023/05/24 01:55:34;;;;;;;;;;;6.20;99.90;;;;;;5091320;28;19928;-71
2023/05/24 01:58:02;;;;;;;;;;;6.10;99.90;;;;;;5080145;28;19932;-71
2023/05/24 02:00:30;;;;;;;;;;;6.10;99.90;;;;;;5070103;28;19932;-71
2023/05/24 02:02:59;;;;;;;;;;;6.00;99.90;;;;;;5089915;28;19933;-71
2023/05/24 02:05:25;;;;;;;;;;;6.00;99.90;;;;;;5068781;28;19931;-71
2023/05/24 02:07:52;;;;;;;;;;;6.00;99.90;;;;;;5073128;28;19928;-71
2023/05/24 02:10:19;;;;;;;;;;;5.90;99.90;;;;;;5051889;28;19940;-71
2023/05/24 02:12:46;;;;;;;;;;;5.90;99.90;;;;;;5070329;28;19924;-71
2023/05/24 02:15:13;;;;;;;;;;;5.90;99.90;;;;;;5083344;28;20315;-72
2023/05/24 02:17:41;;;;;;;;;;;5.90;99.90;;;;;;5071166;28;19932;-71
2023/05/24 02:20:12;;;;;;;;;;;5.80;99.90;;;;;;5075650;28;19939;-72
2023/05/24 02:22:38;;;;;;;;;;;5.70;99.90;;;;;;5104450;28;19980;-71
2023/05/24 02:25:06;;;;;;;;;;;5.80;99.90;;;;;;5106451;28;20333;-72
2023/05/24 02:27:33;;;;;;;;;;;5.70;99.90;;;;;;5101786;28;19928;-71
2023/05/24 02:30:00;;;;;;;;;;;5.70;99.90;;;;;;5079771;28;20483;-72
2023/05/24 02:32:26;;;;;;;;;;;5.60;99.90;;;;;;5071337;28;20271;-71
2023/05/24 02:34:53;;;;;;;;;;;5.60;99.90;;;;;;5090069;28;19964;-71
2023/05/24 02:37:21;;;;;;;;;;;5.60;99.90;;;;;;5089192;28;19928;-71
2023/05/24 02:39:48;;;;;;;;;;;5.50;99.90;;;;;;5089100;28;19938;-72
2023/05/24 02:42:15;;;;;;;;;;;5.50;99.90;;;;;;5087589;28;19947;-73
2023/05/24 02:44:42;;;;;;;;;;;5.50;99.90;;;;;;5070658;28;20197;-73
2023/05/24 02:47:09;;;;;;;;;;;5.40;99.90;;;;;;5083792;28;19939;-73
2023/05/24 02:49:35;;;;;;;;;;;5.40;99.90;;;;;;5101549;28;20293;-73
2023/05/24 02:52:02;;;;;;;;;;;5.40;99.90;;;;;;5100107;28;19931;-74
2023/05/24 02:54:31;;;;;;;;;;;5.40;99.90;;;;;;5091535;28;19940;-74
2023/05/24 02:56:58;;;;;;;;;;;5.50;99.90;;;;;;5069426;28;20046;-74
2023/05/24 02:59:24;;;;;;;;;;;5.40;99.90;;;;;;5069243;28;19932;-74
2023/05/24 03:01:51;;;;;;;;;;;5.40;99.90;;;;;;5071282;28;20001;-74
2023/05/24 03:04:18;;;;;;;;;;;5.40;99.90;;;;;;5088749;28;20409;-74
2023/05/24 03:06:46;;;;;;;;;;;5.40;99.90;;;;;;5071502;28;20020;-73
2023/05/24 03:09:15;;;;;;;;;;;5.40;99.90;;;;;;5070390;28;19924;-73
2023/05/24 03:11:43;;;;;;;;;;;5.40;99.90;;;;;;5070415;28;20030;-73
2023/05/24 03:14:10;;;;;;;;;;;5.40;99.90;;;;;;5087234;28;19928;-74
2023/05/24 03:16:39;;;;;;;;;;;5.30;99.90;;;;;;5068257;28;19955;-74
2023/05/24 03:19:06;;;;;;;;;;;5.30;99.90;;;;;;5479898;22;19928;-73
2023/05/24 03:21:33;;;;;;;;;;;5.30;99.90;;;;;;5050781;28;19981;-73
2023/05/24 03:23:59;;;;;;;;;;;5.30;99.90;;;;;;5079303;28;19929;-74
2023/05/24 03:26:27;;;;;;;;;;;3.20;99.90;;;;;;5063375;28;19928;-74
2023/05/24 03:28:55;;;;;;;;;;;5.20;99.90;;;;;;5075920;28;19958;-74
2023/05/24 03:31:28;;;;;;;;;;;5.20;99.90;;;;;;5067746;28;19932;-72
2023/05/24 03:33:55;;;;;;;;;;;5.20;99.90;;;;;;5043580;22;19935;-79
2023/05/24 03:36:24;;;;;;;;;;;5.00;99.90;;;;;;5028804;28;19979;-80
2023/05/24 03:38:52;;;;;;;;;;;5.20;99.90;;;;;;5050812;28;20400;-81
2023/05/24 03:41:21;;;;;;;;;;;5.20;99.90;;;;;;5034784;28;19929;-81
2023/05/24 03:43:48;;;;;;;;;;;5.20;99.90;;;;;;5053424;28;19932;-79
2023/05/24 03:46:18;;;;;;;;;;;5.20;99.90;;;;;;5034957;28;20252;-82
2023/05/24 03:48:45;;;;;;;;;;;5.30;99.90;;;;;;5051542;28;19941;-80
2023/05/24 03:51:12;;;;;;;;;;;5.20;99.90;;;;;;5033568;28;20365;-80
2023/05/24 03:53:39;;;;;;;;;;;5.30;99.90;;;;;;5029172;28;19929;-82
2023/05/24 03:56:06;;;;;;;;;;;5.30;99.90;;;;;;5050023;28;19929;-81
2023/05/24 03:58:33;;;;;;;;;;;5.40;99.90;;;;;;5058319;28;19929;-80
2023/05/24 04:01:00;;;;;;;;;;;5.60;99.90;;;;;;5025428;28;19956;-82
2023/05/24 04:03:29;;;;;;;;;;;5.60;99.90;;;;;;5017670;28;19940;-81
2023/05/24 04:05:55;;;;;;;;;;;5.70;99.90;;;;;;5031320;28;19933;-80
2023/05/24 04:08:23;;;;;;;;;;;5.70;99.90;;;;;;5025742;28;20707;-81
2023/05/24 04:10:50;;;;;;;;;;;5.80;99.90;;;;;;5036482;28;19979;-80
2023/05/24 04:13:17;;;;;;;;;;;5.80;99.90;;;;;;5036410;28;19932;-80
2023/05/24 04:15:44;;;;;;;;;;;5.80;99.90;;;;;;5051039;28;19929;-80
2023/05/24 04:18:11;;;;;;;;;;;6.00;99.90;;;;;;5034775;28;20047;-80
2023/05/24 04:20:40;;;;;;;;;;;6.00;99.90;;;;;;5035580;28;19986;-80
2023/05/24 04:23:07;;;;;;;;;;;6.00;99.90;;;;;;5051955;28;19933;-80
2023/05/24 04:25:34;;;;;;;;;;;6.10;99.90;;;;;;5051977;28;19929;-80
2023/05/24 04:28:01;;;;;;;;;;;8.20;99.90;;;;;;5034904;28;19937;-78
2023/05/24 04:30:28;;;;;;;;;;;6.10;99.90;;;;;;5046552;28;19956;-80
2023/05/24 04:32:57;;;;;;;;;;;6.30;99.90;;;;;;5017472;28;19933;-81
2023/05/24 04:35:24;;;;;;;;;;;6.60;99.90;;;;;;5017871;28;19936;-81
2023/05/24 04:37:52;;;;;;;;;;;6.70;99.90;;;;;;5015715;28;19929;-81
2023/05/24 04:40:21;;;;;;;;;;;6.90;99.90;;;;;;5034087;28;19929;-82
2023/05/24 04:42:48;;;;;;;;;;;7.10;99.90;;;;;;5034658;28;19929;-79
2023/05/24 04:45:16;;;;;;;;;;;7.40;99.90;;;;;;5034844;28;19984;-80
2023/05/24 04:47:43;;;;;;;;;;;7.50;99.90;;;;;;5034914;28;20008;-80
2023/05/24 04:50:10;;;;;;;;;;;7.70;99.90;;;;;;5035781;28;19951;-80
2023/05/24 04:52:37;;;;;;;;;;;7.80;99.90;;;;;;5037495;28;19968;-81
2023/05/24 04:55:06;;;;;;;;;;;8.00;99.90;;;;;;5035903;28;19971;-81
2023/05/24 04:57:33;;;;;;;;;;;8.10;99.90;;;;;;5037766;28;19936;-81
2023/05/24 05:00:10;;;;;;;;;;;8.30;99.90;;;;;;5037454;28;20304;-80
2023/05/24 05:02:44;;;;;;;;;;;8.50;99.90;;;;;;5038651;28;20365;-81
2023/05/24 05:05:11;;;;;;;;;;;8.80;99.90;;;;;;5018872;28;20297;-80
2023/05/24 05:10:48;;;;;;;;;;;9.40;99.90;;;;;;5035112;28;19925;-82
2023/05/24 05:13:23;;;;;;;;;;;9.70;99.90;;;;;;5038078;28;20023;-82
2023/05/24 05:19:07;;;;;;;;;;;10.10;99.90;;;;;;5031971;28;19976;-80
2023/05/24 05:21:47;;;;;;;;;;;10.40;99.90;;;;;;5038759;28;19948;-81
2023/05/24 05:24:29;;;;;;;;;;;10.50;99.90;;;;;;5038352;28;20007;-81
2023/05/24 05:27:07;;;;;;;;;;;10.70;99.90;;;;;;5039178;28;19975;-81
2023/05/24 05:29:44;;;;;;;;;;;11.00;99.90;;;;;;5044748;28;20651;-81
2023/05/24 05:32:23;;;;;;;;;;;11.30;99.90;;;;;;5042635;28;20210;-81
2023/05/24 05:35:03;;;;;;;;;;;11.50;99.90;;;;;;5077157;28;20383;-81
2023/05/24 05:37:33;;;;;;;;;;;12.20;99.90;;;;;;5077047;28;20031;-81
2023/05/24 05:40:08;;;;;;;;;;;12.50;99.90;;;;;;5078436;28;19979;-80
2023/05/24 05:43:13;;;;;;;;;;;12.50;99.90;;;;;;5078633;28;20358;-81
2023/05/24 05:45:47;;;;;;;;;;;12.60;99.90;;;;;;5044089;28;19929;-80
2023/05/24 05:48:37;;;;;;;;;;;12.30;99.90;;;;;;5048086;28;19928;-80
2023/05/24 05:51:08;;;;;;;;;;;12.90;99.90;;;;;;5077175;28;19947;-80
2023/05/24 05:53:47;;;;;;;;;;;13.00;99.90;;;;;;5079303;28;19955;-83
2023/05/24 05:56:14;;;;;;;;;;;13.10;99.90;;;;;;5062620;28;19925;-81
2023/05/24 05:58:41;;;;;;;;;;;13.30;99.90;;;;;;5059769;28;19928;-81
2023/05/24 06:01:09;;;;;;;;;;;13.40;99.90;;;;;;5070104;28;19928;-76
2023/05/24 06:03:36;;;;;;;;;;;13.50;99.90;;;;;;5075808;28;19931;-80
2023/05/24 06:06:03;;;;;;;;;;;13.60;99.90;;;;;;5058002;28;19935;-82
2023/05/24 06:08:33;;;;;;;;;;;13.70;99.90;;;;;;5072258;28;19978;-81
2023/05/24 06:11:00;;;;;;;;;;;13.80;99.90;;;;;;5075483;28;19967;-80
2023/05/24 06:13:28;;;;;;;;;;;13.70;99.90;;;;;;5057596;28;19940;-80
2023/05/24 06:15:55;;;;;;;;;;;13.80;99.90;;;;;;5056800;28;19932;-80
2023/05/24 06:18:24;;;;;;;;;;;13.80;99.90;;;;;;5074080;28;19936;-80
2023/05/24 06:20:51;;;;;;;;;;;13.80;99.90;;;;;;5056946;28;19929;-80
2023/05/24 06:23:18;;;;;;;;;;;14.00;99.90;;;;;;5057518;28;19949;-79
2023/05/24 06:25:46;;;;;;;;;;;13.50;99.90;;;;;;5072845;28;19925;-77
2023/05/24 06:28:12;;;;;;;;;;;13.60;99.90;;;;;;5056762;28;19999;-79
2023/05/24 06:30:39;;;;;;;;;;;13.60;99.90;;;;;;5068510;28;19947;-80
2023/05/24 06:33:06;;;;;;;;;;;14.40;99.90;;;;;;5036490;28;19935;-79
2023/05/24 06:35:35;;;;;;;;;;;15.30;99.90;;;;;;5051830;28;19929;-79
2023/05/24 06:38:02;;;;;;;;;;;16.00;99.90;;;;;;5035936;28;19929;-78
2023/05/24 06:40:28;;;;;;;;;;;16.00;99.90;;;;;;5072282;28;20284;-79
2023/05/24 06:42:58;;;;;;;;;;;17.60;99.90;;;;;;5053708;28;20288;-79
2023/05/24 06:45:25;;;;;;;;;;;15.60;99.90;;;;;;5053638;28;19943;-78
2023/05/24 06:47:52;;;;;;;;;;;15.60;99.90;;;;;;5059092;28;19935;-79
2023/05/24 06:50:19;;;;;;;;;;;15.60;99.90;;;;;;5072643;28;19969;-79
2023/05/24 06:52:48;;;;;;;;;;;16.90;99.90;;;;;;5058025;28;19924;-79
2023/05/24 06:55:15;;;;;;;;;;;16.90;99.90;;;;;;5074682;28;19970;-79
2023/05/24 06:57:42;;;;;;;;;;;16.70;99.90;;;;;;5053184;28;20415;-80
2023/05/24 07:00:11;;;;;;;;;;;16.60;99.90;;;;;;5073011;28;19983;-78
2023/05/24 07:02:38;;;;;;;;;;;18.30;99.90;;;;;;5054252;28;19939;-79
2023/05/24 07:05:10;;;;;;;;;;;16.20;99.90;;;;;;5069042;28;19925;-79
2023/05/24 07:07:38;;;;;;;;;;;15.70;99.90;;;;;;5075557;28;19988;-79
2023/05/24 07:10:07;;;;;;;;;;;15.40;99.90;;;;;;5057836;28;19934;-79
2023/05/24 07:12:34;;;;;;;;;;;15.30;99.90;;;;;;5059086;28;19935;-80
2023/05/24 07:15:01;;;;;;;;;;;15.20;99.90;;;;;;5076660;28;19924;-79
2023/05/24 07:17:28;;;;;;;;;;;15.20;99.90;;;;;;5056923;28;19929;-79
2023/05/24 07:19:55;;;;;;;;;;;15.20;99.90;;;;;;5054088;28;19978;-79
2023/05/24 07:22:24;;;;;;;;;;;15.30;99.90;;;;;;5057100;28;19928;-78
2023/05/24 07:24:51;;;;;;;;;;;15.50;99.90;;;;;;5059518;28;19935;-79
2023/05/24 07:27:19;;;;;;;;;;;15.70;99.90;;;;;;5057815;28;19940;-79
2023/05/24 07:29:49;;;;;;;;;;;15.70;99.90;;;;;;5056766;28;20327;-79
2023/05/24 07:32:17;;;;;;;;;;;15.70;99.90;;;;;;5058588;28;19996;-80
2023/05/24 07:34:44;;;;;;;;;;;15.80;99.90;;;;;;5036950;28;19925;-80
2023/05/24 07:37:11;;;;;;;;;;;16.00;99.90;;;;;;5036781;28;19929;-79
2023/05/24 07:39:38;;;;;;;;;;;15.90;99.90;;;;;;5043122;28;20010;-79
2023/05/24 07:42:05;;;;;;;;;;;15.60;99.90;;;;;;5060144;28;20181;-79
2023/05/24 07:44:33;;;;;;;;;;;15.60;99.90;;;;;;5074044;28;19928;-78
2023/05/24 07:47:01;;;;;;;;;;;15.60;99.90;;;;;;5067715;28;19929;-79
2023/05/24 07:49:28;;;;;;;;;;;15.70;99.90;;;;;;5046017;28;19928;-78
2023/05/24 07:51:57;;;;;;;;;;;15.80;99.90;;;;;;5060277;28;19932;-78
2023/05/24 07:54:24;;;;;;;;;;;15.80;99.90;;;;;;5075431;28;19946;-79
2023/05/24 07:56:51;;;;;;;;;;;15.90;99.90;;;;;;5074946;28;19928;-79
2023/05/24 07:59:18;;;;;;;;;;;16.10;99.90;;;;;;5056363;28;19955;-79
2023/05/24 08:01:46;;;;;;;;;;;16.30;99.90;;;;;;5075730;28;19928;-80
2023/05/24 08:04:13;;;;;;;;;;;16.60;99.90;;;;;;5037535;28;19929;-80
2023/05/24 08:06:40;;;;;;;;;;;17.00;99.90;;;;;;5036495;28;19931;-80
2023/05/24 08:09:07;;;;;;;;;;;17.30;99.90;;;;;;5045465;28;20016;-81
2023/05/24 08:11:34;;;;;;;;;;;17.60;99.90;;;;;;5056860;28;19950;-78
2023/05/24 08:14:01;;;;;;;;;;;17.70;99.90;;;;;;5056274;28;19932;-80
2023/05/24 08:16:28;;;;;;;;;;;17.70;99.90;;;;;;5057008;28;19933;-79
2023/05/24 08:18:56;;;;;;;;;;;17.70;99.90;;;;;;5056309;28;19943;-79
2023/05/24 08:21:23;;;;;;;;;;;17.70;99.90;;;;;;5075303;28;19929;-78
2023/05/24 08:23:50;;;;;;;;;;;17.50;99.90;;;;;;5057164;28;19936;-81
2023/05/24 08:26:19;;;;;;;;;;;18.10;99.90;;;;;;5074396;28;20249;-80
2023/05/24 08:28:46;;;;;;;;;;;18.60;99.90;;;;;;5066172;28;19951;-79
2023/05/24 08:31:14;;;;;;;;;;;18.70;99.90;;;;;;5073461;28;20023;-79
2023/05/24 08:33:41;;;;;;;;;;;18.70;99.90;;;;;;5055722;28;20395;-79
2023/05/24 08:36:10;;;;;;;;;;;18.50;99.90;;;;;;5070366;28;19928;-80
2023/05/24 08:38:36;;;;;;;;;;;18.40;99.90;;;;;;5053269;28;19924;-80
2023/05/24 08:41:05;;;;;;;;;;;18.30;99.90;;;;;;5054951;28;19951;-80
2023/05/24 08:43:33;;;;;;;;;;;18.50;99.90;;;;;;5073226;28;19934;-80
2023/05/24 08:46:03;;;;;;;;;;;18.70;99.90;;;;;;5073163;28;19929;-80
2023/05/24 08:48:30;;;;;;;;;;;18.90;99.90;;;;;;5046758;28;20253;-80
2023/05/24 08:50:58;;;;;;;;;;;19.00;99.90;;;;;;5074999;28;19924;-80
2023/05/24 08:53:26;;;;;;;;;;;18.80;99.90;;;;;;5074877;28;19941;-79
2023/05/24 08:55:54;;;;;;;;;;;18.60;99.90;;;;;;5076211;28;19928;-80
2023/05/24 08:58:21;;;;;;;;;;;18.40;99.90;;;;;;5059040;28;19929;-80
2023/05/24 09:00:50;;;;;;;;;;;18.40;99.90;;;;;;5074801;28;19974;-79
2023/05/24 09:03:18;;;;;;;;;;;18.60;99.90;;;;;;5074878;28;20606;-80
2023/05/24 09:05:45;;;;;;;;;;;18.90;99.90;;;;;;5055748;28;19929;-79
2023/05/24 09:08:16;;;;;;;;;;;19.30;99.90;;;;;;5077674;28;19928;-80
2023/05/24 09:10:45;;;;;;;;;;;19.30;99.90;;;;;;5057603;28;19928;-79
2023/05/24 09:13:13;;;;;;;;;;;19.40;99.90;;;;;;5071626;28;19928;-79
2023/05/24 09:15:40;;;;;;;;;;;19.40;99.90;;;;;;5056031;28;19928;-79
2023/05/24 09:18:07;;;;;;;;;;;20.10;99.90;;;;;;5066668;28;19928;-79
2023/05/24 09:20:34;;;;;;;;;;;20.40;99.90;;;;;;5074578;28;20599;-79
2023/05/24 09:23:03;;;;;;;;;;;21.40;99.90;;;;;;5056433;28;19924;-79
2023/05/24 09:25:30;;;;;;;;;;;21.30;99.90;;;;;;5073667;28;20011;-78
2023/05/24 09:27:58;;;;;;;;;;;21.20;99.90;;;;;;5056266;28;19952;-81
2023/05/24 09:30:25;;;;;;;;;;;21.10;99.90;;;;;;5055793;28;20400;-81
2023/05/24 09:32:57;;;;;;;;;;;20.60;99.90;;;;;;5056759;28;19928;-80
2023/05/24 09:35:25;;;;;;;;;;;20.20;99.90;;;;;;5073199;28;19944;-80
2023/05/24 09:37:54;;;;;;;;;;;19.60;99.90;;;;;;5077257;28;19928;-80
2023/05/24 09:40:21;;;;;;;;;;;19.30;99.90;;;;;;5072962;28;19934;-80
2023/05/24 09:42:50;;;;;;;;;;;19.30;99.90;;;;;;5055410;28;19924;-79
2023/05/24 09:45:18;;;;;;;;;;;19.30;99.90;;;;;;5072565;28;19932;-81
2023/05/24 09:47:45;;;;;;;;;;;20.40;99.90;;;;;;5055605;28;19979;-81
2023/05/24 09:50:12;;;;;;;;;;;21.80;99.90;;;;;;5056273;28;19929;-81
2023/05/24 09:52:40;;;;;;;;;;;22.40;99.90;;;;;;5056451;28;19924;-81
2023/05/24 09:55:14;;;;;;;;;;;22.80;99.90;;;;;;5055639;28;20455;-81
2023/05/24 09:57:41;;;;;;;;;;;23.20;99.90;;;;;;5055654;28;19936;-81
2023/05/24 10:00:16;;;;;;;;;;;23.60;99.90;;;;;;5057121;28;19965;-81
2023/05/24 10:02:44;;;;;;;;;;;23.60;99.90;;;;;;5070068;28;19934;-82
2023/05/24 10:05:12;;;;;;;;;;;23.60;99.90;;;;;;5083131;28;19928;-82
2023/05/24 10:07:39;;;;;;;;;;;23.10;99.90;;;;;;5092126;28;19936;-80
2023/05/24 10:10:07;;;;;;;;;;;22.80;99.90;;;;;;5082789;28;19928;-80
2023/05/24 10:12:35;;;;;;;;;;;22.30;99.90;;;;;;5073673;28;19928;-79
2023/05/24 10:15:02;;;;;;;;;;;20.70;99.90;;;;;;5074668;28;19925;-79
2023/05/24 10:17:29;;;;;;;;;;;20.30;99.90;;;;;;5055132;28;19933;-80
2023/05/24 10:19:58;;;;;;;;;;;20.30;99.90;;;;;;5071926;28;19943;-80
2023/05/24 10:22:26;;;;;;;;;;;20.10;99.90;;;;;;5056297;28;20163;-81
2023/05/24 10:24:58;;;;;;;;;;;19.80;99.90;;;;;;5075824;28;19924;-80
2023/05/24 10:27:27;;;;;;;;;;;19.50;99.90;;;;;;5060170;28;19937;-80
2023/05/24 10:29:59;;;;;;;;;;;19.50;99.90;;;;;;5077483;28;19932;-81
2023/05/24 10:32:30;;;;;;;;;;;19.40;99.90;;;;;;5058808;28;20217;-80
2023/05/24 10:34:59;;;;;;;;;;;19.40;99.90;;;;;;5076272;28;19935;-79
2023/05/24 10:37:26;;;;;;;;;;;19.50;99.90;;;;;;5075854;28;19932;-81
2023/05/24 10:39:53;;;;;;;;;;;19.50;99.90;;;;;;5059038;28;19924;-80
2023/05/24 10:42:20;;;;;;;;;;;19.50;99.90;;;;;;5047119;28;19925;-79
2023/05/24 10:44:47;;;;;;;;;;;20.10;99.90;;;;;;5055732;28;20051;-80
2023/05/24 10:47:15;;;;;;;;;;;20.80;99.90;;;;;;5056163;28;19979;-79
2023/05/24 10:49:48;;;;;;;;;;;21.40;99.90;;;;;;5055940;28;19928;-79
2023/05/24 10:52:16;;;;;;;;;;;21.60;99.90;;;;;;5059220;28;20406;-80
2023/05/24 10:54:58;;;;;;;;;;;21.60;99.90;;;;;;5076973;28;19958;-79
2023/05/24 10:57:27;;;;;;;;;;;21.90;99.90;;;;;;5076402;28;20023;-80
2023/05/24 10:59:57;;;;;;;;;;;21.90;99.90;;;;;;5073632;28;19967;-81
2023/05/24 11:02:29;;;;;;;;;;;21.60;99.90;;;;;;5068124;28;19929;-80
2023/05/24 11:04:58;;;;;;;;;;;21.40;99.90;;;;;;5042815;28;20023;-80
2023/05/24 11:07:27;;;;;;;;;;;20.20;99.90;;;;;;5039282;28;19939;-79
2023/05/24 11:09:58;;;;;;;;;;;19.70;99.90;;;;;;5072270;28;19929;-80
2023/05/24 11:12:31;;;;;;;;;;;19.60;99.90;;;;;;5075207;28;19950;-81
2023/05/24 11:15:01;;;;;;;;;;;19.10;99.90;;;;;;5059124;28;19968;-81
2023/05/24 11:17:28;;;;;;;;;;;18.90;99.90;;;;;;5062390;28;19935;-79
2023/05/24 11:19:57;;;;;;;;;;;18.50;99.90;;;;;;5061980;28;19924;-80
2023/05/24 11:22:29;;;;;;;;;;;18.10;99.90;;;;;;5078130;28;19925;-79
2023/05/24 11:25:09;;;;;;;;;;;18.00;99.90;;;;;;5077965;28;20438;-79
2023/05/24 11:27:41;;;;;;;;;;;17.50;99.90;;;;;;5074285;28;19931;-79
2023/05/24 11:32:51;;;;;;;;;;;17.40;99.90;;;;;;5049799;28;19925;-78
2023/05/24 11:35:21;;;;;;;;;;;17.30;99.90;;;;;;5057920;28;19925;-79
2023/05/24 11:37:49;;;;;;;;;;;17.30;99.90;;;;;;5059518;28;19931;-79
2023/05/24 11:40:19;;;;;;;;;;;17.40;99.90;;;;;;5060639;28;20011;-79
2023/05/24 11:42:46;;;;;;;;;;;17.90;99.90;;;;;;5078682;28;19994;-79
2023/05/24 11:45:14;;;;;;;;;;;17.90;99.90;;;;;;5062685;28;19989;-80
2023/05/24 11:47:41;;;;;;;;;;;18.40;99.90;;;;;;5076728;28;19995;-80
2023/05/24 11:50:08;;;;;;;;;;;18.30;99.90;;;;;;5065791;28;20021;-80
2023/05/24 11:52:38;;;;;;;;;;;18.20;99.90;;;;;;5060211;28;19940;-80
2023/05/24 11:55:07;;;;;;;;;;;18.20;99.90;;;;;;5059474;28;19982;-79
2023/05/24 11:57:38;;;;;;;;;;;18.50;99.90;;;;;;5058985;28;19928;-80
2023/05/24 12:00:10;;;;;;;;;;;18.90;99.90;;;;;;5059248;28;20379;-80
2023/05/24 12:02:38;;;;;;;;;;;19.20;99.90;;;;;;5075194;28;19967;-79
2023/05/24 12:05:10;;;;;;;;;;;19.30;99.90;;;;;;5062520;28;19928;-79
2023/05/24 12:07:39;;;;;;;;;;;19.70;99.90;;;;;;5078456;28;19932;-79
2023/05/24 12:10:09;;;;;;;;;;;19.80;99.90;;;;;;5065236;28;19935;-79
2023/05/24 12:12:37;;;;;;;;;;;20.30;99.90;;;;;;5061333;28;19939;-80
2023/05/24 12:15:07;;;;;;;;;;;20.70;99.90;;;;;;5078213;28;19928;-81
2023/05/24 12:17:34;;;;;;;;;;;21.10;99.90;;;;;;5078839;28;20410;-82
2023/05/24 12:20:02;;;;;;;;;;;21.40;99.90;;;;;;5061661;28;19955;-81
2023/05/24 12:22:32;;;;;;;;;;;21.60;99.90;;;;;;5063018;28;20410;-82
2023/05/24 12:24:59;;;;;;;;;;;22.00;99.90;;;;;;5078964;28;20015;-81
2023/05/24 12:27:30;;;;;;;;;;;22.20;99.90;;;;;;5081082;28;19932;-80
2023/05/24 12:30:05;;;;;;;;;;;22.20;99.90;;;;;;5080469;28;19925;-81
2023/05/24 12:32:32;;;;;;;;;;;22.40;99.90;;;;;;5079483;28;19924;-81
2023/05/24 12:34:59;;;;;;;;;;;22.40;99.90;;;;;;5062473;28;19928;-80
2023/05/24 12:37:30;;;;;;;;;;;23.20;99.90;;;;;;5080547;28;19932;-81
2023/05/24 12:40:04;;;;;;;;;;;23.30;99.90;;;;;;5082500;28;19988;-82
2023/05/24 12:42:35;;;;;;;;;;;22.90;99.90;;;;;;5081307;28;19932;-81
2023/05/24 12:45:02;;;;;;;;;;;22.90;99.90;;;;;;5079118;28;19999;-81
2023/05/24 12:47:29;;;;;;;;;;;23.50;99.90;;;;;;5078091;28;20565;-81
2023/05/24 12:49:56;;;;;;;;;;;23.50;99.90;;;;;;5079072;28;19982;-80
2023/05/24 12:52:23;;;;;;;;;;;23.60;99.90;;;;;;5061889;28;20531;-82
2023/05/24 12:54:50;;;;;;;;;;;23.70;99.90;;;;;;5079210;28;19928;-81
2023/05/24 12:57:17;;;;;;;;;;;23.70;99.90;;;;;;5077453;28;20014;-81
2023/05/24 12:59:46;;;;;;;;;;;23.00;99.90;;;;;;5061605;28;19924;-82
2023/05/24 13:02:13;;;;;;;;;;;22.40;99.90;;;;;;5078493;28;20126;-82
2023/05/24 13:04:43;;;;;;;;;;;22.40;99.90;;;;;;5061397;28;19924;-80
2023/05/24 13:07:10;;;;;;;;;;;22.40;99.90;;;;;;5079173;28;20012;-81
2023/05/24 13:09:37;;;;;;;;;;;22.40;99.90;;;;;;5064604;28;20180;-81
2023/05/24 13:12:05;;;;;;;;;;;22.10;99.90;;;;;;5061131;28;19935;-80
2023/05/24 13:14:32;;;;;;;;;;;22.00;99.90;;;;;;5079077;28;19924;-80
2023/05/24 13:17:00;;;;;;;;;;;22.20;99.90;;;;;;5078918;28;19950;-80
2023/05/24 13:19:27;;;;;;;;;;;22.50;99.90;;;;;;5078942;28;19920;-79
2023/05/24 13:21:57;;;;;;;;;;;22.90;99.90;;;;;;5077937;28;19934;-79
2023/05/24 13:24:24;;;;;;;;;;;22.90;99.90;;;;;;5062072;28;20322;-79
2023/05/24 13:26:51;;;;;;;;;;;22.90;99.90;;;;;;5079812;28;19984;-79
2023/05/24 13:29:18;;;;;;;;;;;22.80;99.90;;;;;;5078516;28;19935;-79
2023/05/24 13:31:45;;;;;;;;;;;22.50;99.90;;;;;;5079964;28;19931;-80
2023/05/24 13:34:14;;;;;;;;;;;22.20;99.90;;;;;;5080338;28;19967;-80
2023/05/24 13:36:42;;;;;;;;;;;22.10;99.90;;;;;;5064174;28;20046;-78
2023/05/24 13:39:09;;;;;;;;;;;21.60;99.90;;;;;;5081049;28;19944;-79
2023/05/24 13:41:37;;;;;;;;;;;21.30;99.90;;;;;;5062224;28;19932;-79
2023/05/24 13:44:04;;;;;;;;;;;20.80;99.90;;;;;;5080646;28;19936;-79
2023/05/24 13:46:31;;;;;;;;;;;21.00;99.90;;;;;;5063077;28;19932;-79
2023/05/24 13:48:58;;;;;;;;;;;21.50;99.90;;;;;;5081131;28;19935;-80
2023/05/24 13:51:27;;;;;;;;;;;21.60;99.90;;;;;;5079735;28;19932;-79
2023/05/24 13:53:54;;;;;;;;;;;21.40;99.90;;;;;;5062056;28;19970;-79
2023/05/24 13:56:22;;;;;;;;;;;20.90;99.60;;;;;;5082173;28;19932;-79
2023/05/24 13:58:49;;;;;;;;;;;20.50;99.90;;;;;;5065519;28;19928;-78
2023/05/24 14:01:16;;;;;;;;;;;20.40;99.90;;;;;;5083307;28;19939;-79
2023/05/24 14:03:43;;;;;;;;;;;20.50;99.90;;;;;;5082383;28;20269;-78
2023/05/24 14:06:11;;;;;;;;;;;20.50;99.90;;;;;;5065275;28;19940;-79
2023/05/24 14:08:39;;;;;;;;;;;20.50;99.90;;;;;;5066885;28;19924;-79
2023/05/24 14:11:06;;;;;;;;;;;20.60;99.90;;;;;;5066630;28;19924;-79
2023/05/24 14:13:33;;;;;;;;;;;20.70;99.90;;;;;;5067277;28;19939;-79
2023/05/24 14:16:00;;;;;;;;;;;20.70;99.90;;;;;;5064479;28;20096;-79
2023/05/24 14:18:27;;;;;;;;;;;20.40;99.90;;;;;;5069942;28;20023;-78
2023/05/24 14:20:54;;;;;;;;;;;20.40;99.90;;;;;;5081038;28;19928;-79
2023/05/24 14:23:21;;;;;;;;;;;19.90;99.90;;;;;;5083637;28;19982;-79
2023/05/24 14:25:50;;;;;;;;;;;19.80;99.90;;;;;;5083794;28;19925;-81
2023/05/24 14:28:18;;;;;;;;;;;19.70;99.90;;;;;;5053193;28;19967;-79
2023/05/24 14:30:45;;;;;;;;;;;19.60;99.90;;;;;;5056336;28;19955;-79
2023/05/24 14:33:12;;;;;;;;;;;18.90;99.90;;;;;;5077953;28;19933;-79
2023/05/24 14:35:40;;;;;;;;;;;18.60;99.90;;;;;;5093452;28;19928;-79
2023/05/24 14:38:07;;;;;;;;;;;18.30;99.90;;;;;;5064757;28;19932;-80
2023/05/24 14:40:35;;;;;;;;;;;18.10;99.90;;;;;;5081016;28;19928;-80
2023/05/24 14:43:04;;;;;;;;;;;17.90;99.90;;;;;;5065230;28;19932;-79
2023/05/24 14:45:31;;;;;;;;;;;17.80;99.90;;;;;;5073781;28;19929;-79
2023/05/24 14:48:02;;;;;;;;;;;17.80;99.90;;;;;;5044687;28;20392;-81